sensor_id;sensor_type;location;lat;lon;timestamp;P1;durP1;ratioP1;P2;durP2;ratioP2
14088;SDS011;7120;52.890;6.040;2023-09-19T00:00:18;12.70;;;2.00;;
14088;SDS011;7120;52.890;6.040;2023-09-19T00:02:46;8.10;;;2.03;;
14088;SDS011;7120;52.890;6.040;2023-09-19T00:05:16;9.93;;;2.07;;
14088;SDS011;7120;52.890;6.040;2023-09-19T00:07:42;13.10;;;2.50;;
14088;SDS011;7120;52.890;6.040;2023-09-19T00:10:07;13.83;;;2.57;;
14088;SDS011;7120;52.890;6.040;2023-09-19T00:12:34;11.60;;;2.40;;
14088;SDS011;7120;52.890;6.040;2023-09-19T00:15:00;11.03;;;2.23;;
14088;SDS011;7120;52.890;6.040;2023-09-19T00:17:26;7.53;;;2.60;;
14088;SDS011;7120;52.890;6.040;2023-09-19T00:19:55;6.63;;;2.03;;
14088;SDS011;7120;52.890;6.040;2023-09-19T00:22:21;6.93;;;2.53;;
14088;SDS011;7120;52.890;6.040;2023-09-19T00:24:46;7.50;;;2.43;;
14088;SDS011;7120;52.890;6.040;2023-09-19T00:27:11;11.73;;;2.40;;
14088;SDS011;7120;52.890;6.040;2023-09-19T00:29:37;9.00;;;2.27;;
14088;SDS011;7120;52.890;6.040;2023-09-19T00:32:02;8.13;;;2.40;;
14088;SDS011;7120;52.890;6.040;2023-09-19T00:34:29;14.00;;;3.27;;
14088;SDS011;7120;52.890;6.040;2023-09-19T00:36:56;10.30;;;2.47;;
14088;SDS011;7120;52.890;6.040;2023-09-19T00:39:21;10.23;;;2.50;;
14088;SDS011;7120;52.890;6.040;2023-09-19T00:41:47;10.87;;;2.80;;
14088;SDS011;7120;52.890;6.040;2023-09-19T00:44:12;11.60;;;2.60;;
14088;SDS011;7120;52.890;6.040;2023-09-19T00:46:38;12.47;;;2.73;;
14088;SDS011;7120;52.890;6.040;2023-09-19T00:49:03;4.93;;;2.40;;
14088;SDS011;7120;52.890;6.040;2023-09-19T00:51:29;7.93;;;2.33;;
14088;SDS011;7120;52.890;6.040;2023-09-19T00:53:55;5.90;;;2.40;;
14088;SDS011;7120;52.890;6.040;2023-09-19T00:56:20;5.97;;;2.27;;
14088;SDS011;7120;52.890;6.040;2023-09-19T00:58:46;4.63;;;2.33;;
14088;SDS011;7120;52.890;6.040;2023-09-19T01:01:15;5.37;;;2.40;;
14088;SDS011;7120;52.890;6.040;2023-09-19T01:03:42;8.43;;;2.50;;
14088;SDS011;7120;52.890;6.040;2023-09-19T01:06:07;8.50;;;2.27;;
14088;SDS011;7120;52.890;6.040;2023-09-19T01:08:35;9.40;;;1.97;;
14088;SDS011;7120;52.890;6.040;2023-09-19T01:13:40;9.67;;;1.87;;
14088;SDS011;7120;52.890;6.040;2023-09-19T01:19:05;6.10;;;2.00;;
14088;SDS011;7120;52.890;6.040;2023-09-19T01:21:55;7.07;;;2.17;;
14088;SDS011;7120;52.890;6.040;2023-09-19T01:27:24;4.93;;;1.50;;
14088;SDS011;7120;52.890;6.040;2023-09-19T01:30:22;5.83;;;1.97;;
14088;SDS011;7120;52.890;6.040;2023-09-19T01:32:52;5.07;;;2.13;;
14088;SDS011;7120;52.890;6.040;2023-09-19T01:35:19;6.57;;;2.00;;
14088;SDS011;7120;52.890;6.040;2023-09-19T01:37:44;6.57;;;2.17;;
14088;SDS011;7120;52.890;6.040;2023-09-19T01:40:11;6.80;;;1.97;;
14088;SDS011;7120;52.890;6.040;2023-09-19T01:47:51;8.43;;;2.30;;
14088;SDS011;7120;52.890;6.040;2023-09-19T01:53:04;9.17;;;2.13;;
14088;SDS011;7120;52.890;6.040;2023-09-19T01:55:36;3.77;;;1.97;;
14088;SDS011;7120;52.890;6.040;2023-09-19T01:58:08;6.17;;;2.03;;
14088;SDS011;7120;52.890;6.040;2023-09-19T02:00:38;13.93;;;2.10;;
14088;SDS011;7120;52.890;6.040;2023-09-19T02:03:07;6.87;;;2.00;;
14088;SDS011;7120;52.890;6.040;2023-09-19T02:05:34;8.83;;;1.87;;
14088;SDS011;7120;52.890;6.040;2023-09-19T02:07:59;10.13;;;1.90;;
14088;SDS011;7120;52.890;6.040;2023-09-19T02:10:25;6.53;;;1.80;;
14088;SDS011;7120;52.890;6.040;2023-09-19T02:12:51;7.93;;;1.83;;
14088;SDS011;7120;52.890;6.040;2023-09-19T02:15:16;7.50;;;1.77;;
14088;SDS011;7120;52.890;6.040;2023-09-19T02:17:42;7.20;;;1.80;;
14088;SDS011;7120;52.890;6.040;2023-09-19T02:20:09;8.73;;;1.63;;
14088;SDS011;7120;52.890;6.040;2023-09-19T02:22:40;5.87;;;1.70;;
14088;SDS011;7120;52.890;6.040;2023-09-19T02:25:07;9.87;;;1.90;;
14088;SDS011;7120;52.890;6.040;2023-09-19T02:27:33;6.47;;;1.70;;
14088;SDS011;7120;52.890;6.040;2023-09-19T02:29:59;8.57;;;2.00;;
14088;SDS011;7120;52.890;6.040;2023-09-19T02:32:27;5.33;;;1.80;;
14088;SDS011;7120;52.890;6.040;2023-09-19T02:34:55;11.50;;;2.30;;
14088;SDS011;7120;52.890;6.040;2023-09-19T02:37:20;5.07;;;1.77;;
14088;SDS011;7120;52.890;6.040;2023-09-19T02:39:46;7.23;;;2.00;;
14088;SDS011;7120;52.890;6.040;2023-09-19T02:42:11;5.87;;;1.90;;
14088;SDS011;7120;52.890;6.040;2023-09-19T02:44:36;4.43;;;2.00;;
14088;SDS011;7120;52.890;6.040;2023-09-19T02:47:03;3.87;;;1.70;;
14088;SDS011;7120;52.890;6.040;2023-09-19T02:49:29;9.47;;;2.20;;
14088;SDS011;7120;52.890;6.040;2023-09-19T02:51:54;7.30;;;2.20;;
14088;SDS011;7120;52.890;6.040;2023-09-19T02:54:19;4.90;;;2.10;;
14088;SDS011;7120;52.890;6.040;2023-09-19T02:56:45;6.10;;;1.90;;
14088;SDS011;7120;52.890;6.040;2023-09-19T02:59:10;5.90;;;2.13;;
14088;SDS011;7120;52.890;6.040;2023-09-19T03:01:36;5.67;;;1.83;;
14088;SDS011;7120;52.890;6.040;2023-09-19T03:04:03;5.67;;;1.77;;
14088;SDS011;7120;52.890;6.040;2023-09-19T03:06:31;6.20;;;1.90;;
14088;SDS011;7120;52.890;6.040;2023-09-19T03:08:56;7.67;;;2.00;;
14088;SDS011;7120;52.890;6.040;2023-09-19T03:11:22;8.50;;;1.90;;
14088;SDS011;7120;52.890;6.040;2023-09-19T03:13:54;5.40;;;1.63;;
14088;SDS011;7120;52.890;6.040;2023-09-19T03:16:20;4.63;;;2.07;;
14088;SDS011;7120;52.890;6.040;2023-09-19T03:18:50;8.00;;;2.30;;
14088;SDS011;7120;52.890;6.040;2023-09-19T03:21:16;7.03;;;2.07;;
14088;SDS011;7120;52.890;6.040;2023-09-19T03:23:42;8.33;;;1.90;;
14088;SDS011;7120;52.890;6.040;2023-09-19T03:26:09;7.33;;;1.90;;
14088;SDS011;7120;52.890;6.040;2023-09-19T03:28:35;6.53;;;2.00;;
14088;SDS011;7120;52.890;6.040;2023-09-19T03:31:01;6.60;;;2.10;;
14088;SDS011;7120;52.890;6.040;2023-09-19T03:33:27;7.10;;;2.37;;
14088;SDS011;7120;52.890;6.040;2023-09-19T03:35:53;6.10;;;1.83;;
14088;SDS011;7120;52.890;6.040;2023-09-19T03:38:19;8.33;;;1.60;;
14088;SDS011;7120;52.890;6.040;2023-09-19T03:40:44;5.80;;;1.70;;
14088;SDS011;7120;52.890;6.040;2023-09-19T03:43:10;6.63;;;1.60;;
14088;SDS011;7120;52.890;6.040;2023-09-19T03:45:35;6.70;;;1.90;;
14088;SDS011;7120;52.890;6.040;2023-09-19T03:48:00;5.73;;;1.60;;
14088;SDS011;7120;52.890;6.040;2023-09-19T03:50:26;5.37;;;1.73;;
14088;SDS011;7120;52.890;6.040;2023-09-19T03:52:55;8.63;;;2.60;;
14088;SDS011;7120;52.890;6.040;2023-09-19T03:55:22;7.03;;;2.17;;
14088;SDS011;7120;52.890;6.040;2023-09-19T03:57:50;4.23;;;1.80;;
14088;SDS011;7120;52.890;6.040;2023-09-19T04:00:15;3.17;;;1.63;;
14088;SDS011;7120;52.890;6.040;2023-09-19T04:02:43;4.73;;;1.67;;
14088;SDS011;7120;52.890;6.040;2023-09-19T04:05:11;5.93;;;1.90;;
14088;SDS011;7120;52.890;6.040;2023-09-19T04:07:36;5.77;;;2.00;;
14088;SDS011;7120;52.890;6.040;2023-09-19T04:10:02;5.03;;;1.70;;
14088;SDS011;7120;52.890;6.040;2023-09-19T04:12:28;8.20;;;1.80;;
14088;SDS011;7120;52.890;6.040;2023-09-19T04:14:53;4.80;;;1.83;;
14088;SDS011;7120;52.890;6.040;2023-09-19T04:17:19;7.63;;;1.93;;
14088;SDS011;7120;52.890;6.040;2023-09-19T04:19:45;5.97;;;2.00;;
14088;SDS011;7120;52.890;6.040;2023-09-19T04:22:11;6.63;;;2.07;;
14088;SDS011;7120;52.890;6.040;2023-09-19T04:24:37;8.13;;;2.37;;
14088;SDS011;7120;52.890;6.040;2023-09-19T04:27:03;9.00;;;2.57;;
14088;SDS011;7120;52.890;6.040;2023-09-19T04:29:29;7.67;;;1.60;;
14088;SDS011;7120;52.890;6.040;2023-09-19T04:31:55;8.67;;;2.33;;
14088;SDS011;7120;52.890;6.040;2023-09-19T04:34:24;11.53;;;2.20;;
14088;SDS011;7120;52.890;6.040;2023-09-19T04:36:49;9.37;;;2.33;;
14088;SDS011;7120;52.890;6.040;2023-09-19T04:39:15;10.27;;;2.40;;
14088;SDS011;7120;52.890;6.040;2023-09-19T04:41:41;4.73;;;1.97;;
14088;SDS011;7120;52.890;6.040;2023-09-19T04:44:07;9.00;;;2.07;;
14088;SDS011;7120;52.890;6.040;2023-09-19T04:46:35;5.97;;;2.30;;
14088;SDS011;7120;52.890;6.040;2023-09-19T04:49:01;5.80;;;1.83;;
14088;SDS011;7120;52.890;6.040;2023-09-19T04:51:27;6.40;;;2.30;;
14088;SDS011;7120;52.890;6.040;2023-09-19T04:53:57;7.47;;;2.33;;
14088;SDS011;7120;52.890;6.040;2023-09-19T04:56:23;8.93;;;2.43;;
14088;SDS011;7120;52.890;6.040;2023-09-19T04:58:49;8.97;;;2.00;;
14088;SDS011;7120;52.890;6.040;2023-09-19T05:01:14;5.87;;;2.23;;
14088;SDS011;7120;52.890;6.040;2023-09-19T05:03:40;6.37;;;1.90;;
14088;SDS011;7120;52.890;6.040;2023-09-19T05:06:05;13.60;;;2.43;;
14088;SDS011;7120;52.890;6.040;2023-09-19T05:08:31;8.80;;;2.33;;
14088;SDS011;7120;52.890;6.040;2023-09-19T05:10:56;7.57;;;1.90;;
14088;SDS011;7120;52.890;6.040;2023-09-19T05:13:21;4.93;;;1.93;;
14088;SDS011;7120;52.890;6.040;2023-09-19T05:15:48;8.40;;;2.17;;
14088;SDS011;7120;52.890;6.040;2023-09-19T05:18:15;9.30;;;2.30;;
14088;SDS011;7120;52.890;6.040;2023-09-19T05:20:40;7.20;;;2.00;;
14088;SDS011;7120;52.890;6.040;2023-09-19T05:23:07;6.50;;;2.00;;
14088;SDS011;7120;52.890;6.040;2023-09-19T05:25:37;8.77;;;2.23;;
14088;SDS011;7120;52.890;6.040;2023-09-19T05:28:08;13.40;;;2.60;;
14088;SDS011;7120;52.890;6.040;2023-09-19T05:30:37;4.17;;;2.00;;
14088;SDS011;7120;52.890;6.040;2023-09-19T05:33:04;6.40;;;2.13;;
14088;SDS011;7120;52.890;6.040;2023-09-19T05:35:30;5.73;;;2.10;;
14088;SDS011;7120;52.890;6.040;2023-09-19T05:37:56;6.37;;;2.20;;
14088;SDS011;7120;52.890;6.040;2023-09-19T05:40:23;6.17;;;2.23;;
14088;SDS011;7120;52.890;6.040;2023-09-19T05:42:49;8.30;;;2.23;;
14088;SDS011;7120;52.890;6.040;2023-09-19T05:45:15;7.63;;;2.13;;
14088;SDS011;7120;52.890;6.040;2023-09-19T05:47:47;8.63;;;2.13;;
14088;SDS011;7120;52.890;6.040;2023-09-19T05:50:13;6.73;;;2.10;;
14088;SDS011;7120;52.890;6.040;2023-09-19T05:52:40;8.93;;;2.47;;
14088;SDS011;7120;52.890;6.040;2023-09-19T05:55:06;6.97;;;2.20;;
14088;SDS011;7120;52.890;6.040;2023-09-19T05:57:32;8.10;;;2.47;;
14088;SDS011;7120;52.890;6.040;2023-09-19T05:59:58;7.57;;;2.40;;
14088;SDS011;7120;52.890;6.040;2023-09-19T06:02:24;5.87;;;1.87;;
14088;SDS011;7120;52.890;6.040;2023-09-19T06:04:53;7.50;;;2.37;;
14088;SDS011;7120;52.890;6.040;2023-09-19T06:07:20;5.40;;;1.73;;
14088;SDS011;7120;52.890;6.040;2023-09-19T06:09:47;6.43;;;2.13;;
14088;SDS011;7120;52.890;6.040;2023-09-19T06:12:12;8.93;;;1.90;;
14088;SDS011;7120;52.890;6.040;2023-09-19T06:14:42;9.07;;;2.43;;
14088;SDS011;7120;52.890;6.040;2023-09-19T06:17:08;11.83;;;2.47;;
14088;SDS011;7120;52.890;6.040;2023-09-19T06:19:34;11.47;;;2.53;;
14088;SDS011;7120;52.890;6.040;2023-09-19T06:21:59;8.97;;;2.17;;
14088;SDS011;7120;52.890;6.040;2023-09-19T06:24:24;6.27;;;2.00;;
14088;SDS011;7120;52.890;6.040;2023-09-19T06:26:50;6.60;;;1.90;;
14088;SDS011;7120;52.890;6.040;2023-09-19T06:29:17;5.97;;;2.10;;
14088;SDS011;7120;52.890;6.040;2023-09-19T06:31:43;10.00;;;2.47;;
14088;SDS011;7120;52.890;6.040;2023-09-19T06:34:09;10.33;;;1.80;;
14088;SDS011;7120;52.890;6.040;2023-09-19T06:36:35;9.30;;;2.27;;
14088;SDS011;7120;52.890;6.040;2023-09-19T06:39:00;5.40;;;2.07;;
14088;SDS011;7120;52.890;6.040;2023-09-19T06:41:26;5.67;;;2.20;;
14088;SDS011;7120;52.890;6.040;2023-09-19T06:43:51;3.47;;;1.77;;
14088;SDS011;7120;52.890;6.040;2023-09-19T06:46:19;4.50;;;2.20;;
14088;SDS011;7120;52.890;6.040;2023-09-19T06:48:45;6.10;;;1.97;;
14088;SDS011;7120;52.890;6.040;2023-09-19T06:51:12;6.07;;;1.93;;
14088;SDS011;7120;52.890;6.040;2023-09-19T06:53:40;10.50;;;2.33;;
14088;SDS011;7120;52.890;6.040;2023-09-19T06:56:06;6.40;;;2.43;;
14088;SDS011;7120;52.890;6.040;2023-09-19T06:58:31;8.03;;;2.20;;
14088;SDS011;7120;52.890;6.040;2023-09-19T07:00:57;8.07;;;2.00;;
14088;SDS011;7120;52.890;6.040;2023-09-19T07:03:22;7.87;;;2.53;;
14088;SDS011;7120;52.890;6.040;2023-09-19T07:05:51;7.40;;;2.47;;
14088;SDS011;7120;52.890;6.040;2023-09-19T07:08:16;9.07;;;2.30;;
14088;SDS011;7120;52.890;6.040;2023-09-19T07:10:41;4.33;;;1.93;;
14088;SDS011;7120;52.890;6.040;2023-09-19T07:13:13;6.13;;;1.97;;
14088;SDS011;7120;52.890;6.040;2023-09-19T07:15:41;11.53;;;2.77;;
14088;SDS011;7120;52.890;6.040;2023-09-19T07:18:12;6.63;;;2.30;;
14088;SDS011;7120;52.890;6.040;2023-09-19T07:20:39;5.40;;;2.33;;
14088;SDS011;7120;52.890;6.040;2023-09-19T07:23:10;10.83;;;2.73;;
14088;SDS011;7120;52.890;6.040;2023-09-19T07:25:38;6.60;;;2.37;;
14088;SDS011;7120;52.890;6.040;2023-09-19T07:28:04;7.30;;;2.10;;
14088;SDS011;7120;52.890;6.040;2023-09-19T07:30:31;5.50;;;2.03;;
14088;SDS011;7120;52.890;6.040;2023-09-19T07:32:56;7.43;;;2.17;;
14088;SDS011;7120;52.890;6.040;2023-09-19T07:35:22;8.37;;;2.20;;
14088;SDS011;7120;52.890;6.040;2023-09-19T07:37:48;9.20;;;2.70;;
14088;SDS011;7120;52.890;6.040;2023-09-19T07:40:17;7.00;;;2.10;;
14088;SDS011;7120;52.890;6.040;2023-09-19T07:42:44;5.73;;;1.90;;
14088;SDS011;7120;52.890;6.040;2023-09-19T07:45:12;6.23;;;2.23;;
14088;SDS011;7120;52.890;6.040;2023-09-19T07:47:45;6.23;;;2.20;;
14088;SDS011;7120;52.890;6.040;2023-09-19T07:50:12;7.27;;;2.07;;
14088;SDS011;7120;52.890;6.040;2023-09-19T07:52:38;7.03;;;1.97;;
14088;SDS011;7120;52.890;6.040;2023-09-19T07:55:05;5.50;;;2.27;;
14088;SDS011;7120;52.890;6.040;2023-09-19T07:57:34;8.37;;;1.93;;
14088;SDS011;7120;52.890;6.040;2023-09-19T08:00:00;7.53;;;2.80;;
14088;SDS011;7120;52.890;6.040;2023-09-19T08:02:29;9.07;;;2.27;;
14088;SDS011;7120;52.890;6.040;2023-09-19T08:04:58;7.73;;;2.57;;
14088;SDS011;7120;52.890;6.040;2023-09-19T08:07:25;7.40;;;2.30;;
14088;SDS011;7120;52.890;6.040;2023-09-19T08:09:51;8.13;;;2.37;;
14088;SDS011;7120;52.890;6.040;2023-09-19T08:12:16;5.77;;;2.67;;
14088;SDS011;7120;52.890;6.040;2023-09-19T08:14:42;5.90;;;2.17;;
14088;SDS011;7120;52.890;6.040;2023-09-19T08:17:07;5.83;;;2.10;;
14088;SDS011;7120;52.890;6.040;2023-09-19T08:19:33;8.90;;;2.40;;
14088;SDS011;7120;52.890;6.040;2023-09-19T08:21:59;6.90;;;2.20;;
14088;SDS011;7120;52.890;6.040;2023-09-19T08:24:27;6.27;;;2.13;;
14088;SDS011;7120;52.890;6.040;2023-09-19T08:26:54;5.80;;;2.50;;
14088;SDS011;7120;52.890;6.040;2023-09-19T08:29:21;9.23;;;1.97;;
14088;SDS011;7120;52.890;6.040;2023-09-19T08:31:59;6.93;;;2.57;;
14088;SDS011;7120;52.890;6.040;2023-09-19T08:34:24;5.20;;;2.17;;
14088;SDS011;7120;52.890;6.040;2023-09-19T08:36:51;9.53;;;2.50;;
14088;SDS011;7120;52.890;6.040;2023-09-19T08:39:17;6.77;;;2.13;;
14088;SDS011;7120;52.890;6.040;2023-09-19T08:41:44;9.50;;;2.50;;
14088;SDS011;7120;52.890;6.040;2023-09-19T08:44:09;9.43;;;2.73;;
14088;SDS011;7120;52.890;6.040;2023-09-19T08:46:35;8.27;;;2.60;;
14088;SDS011;7120;52.890;6.040;2023-09-19T08:49:04;9.60;;;3.23;;
14088;SDS011;7120;52.890;6.040;2023-09-19T08:51:39;6.87;;;2.40;;
14088;SDS011;7120;52.890;6.040;2023-09-19T08:54:25;9.77;;;3.00;;
14088;SDS011;7120;52.890;6.040;2023-09-19T08:56:54;8.47;;;2.60;;
14088;SDS011;7120;52.890;6.040;2023-09-19T08:59:24;7.27;;;2.73;;
14088;SDS011;7120;52.890;6.040;2023-09-19T09:01:52;8.13;;;2.57;;
14088;SDS011;7120;52.890;6.040;2023-09-19T09:04:20;6.20;;;2.63;;
14088;SDS011;7120;52.890;6.040;2023-09-19T09:06:47;7.20;;;2.33;;
14088;SDS011;7120;52.890;6.040;2023-09-19T09:09:18;8.13;;;2.67;;
14088;SDS011;7120;52.890;6.040;2023-09-19T09:11:44;5.20;;;2.40;;
14088;SDS011;7120;52.890;6.040;2023-09-19T09:14:10;12.07;;;3.10;;
14088;SDS011;7120;52.890;6.040;2023-09-19T09:16:37;10.57;;;3.10;;
14088;SDS011;7120;52.890;6.040;2023-09-19T09:19:03;10.27;;;2.60;;
14088;SDS011;7120;52.890;6.040;2023-09-19T09:21:29;7.27;;;2.57;;
14088;SDS011;7120;52.890;6.040;2023-09-19T09:23:55;10.20;;;3.17;;
14088;SDS011;7120;52.890;6.040;2023-09-19T09:32:27;5.50;;;2.20;;
14088;SDS011;7120;52.890;6.040;2023-09-19T09:35:00;10.13;;;2.57;;
14088;SDS011;7120;52.890;6.040;2023-09-19T09:37:26;7.60;;;2.27;;
14088;SDS011;7120;52.890;6.040;2023-09-19T09:40:01;8.03;;;2.33;;
14088;SDS011;7120;52.890;6.040;2023-09-19T09:42:39;8.90;;;2.20;;
14088;SDS011;7120;52.890;6.040;2023-09-19T09:45:18;7.50;;;2.50;;
14088;SDS011;7120;52.890;6.040;2023-09-19T09:48:03;8.97;;;2.60;;
14088;SDS011;7120;52.890;6.040;2023-09-19T09:50:39;10.37;;;3.17;;
14088;SDS011;7120;52.890;6.040;2023-09-19T09:53:24;7.63;;;2.10;;
14088;SDS011;7120;52.890;6.040;2023-09-19T09:56:00;9.60;;;2.73;;
14088;SDS011;7120;52.890;6.040;2023-09-19T09:58:35;9.33;;;3.10;;
14088;SDS011;7120;52.890;6.040;2023-09-19T10:01:02;9.13;;;2.57;;
14088;SDS011;7120;52.890;6.040;2023-09-19T10:03:41;10.00;;;2.53;;
14088;SDS011;7120;52.890;6.040;2023-09-19T10:06:13;8.10;;;2.73;;
14088;SDS011;7120;52.890;6.040;2023-09-19T10:14:28;11.37;;;3.10;;
14088;SDS011;7120;52.890;6.040;2023-09-19T10:16:56;7.20;;;3.00;;
14088;SDS011;7120;52.890;6.040;2023-09-19T10:22:12;8.17;;;2.30;;
14088;SDS011;7120;52.890;6.040;2023-09-19T10:24:45;8.90;;;2.77;;
14088;SDS011;7120;52.890;6.040;2023-09-19T10:27:12;12.63;;;2.90;;
14088;SDS011;7120;52.890;6.040;2023-09-19T10:29:39;6.73;;;2.77;;
14088;SDS011;7120;52.890;6.040;2023-09-19T10:32:05;6.37;;;2.20;;
14088;SDS011;7120;52.890;6.040;2023-09-19T10:34:34;7.63;;;2.77;;
14088;SDS011;7120;52.890;6.040;2023-09-19T10:37:01;9.57;;;2.70;;
14088;SDS011;7120;52.890;6.040;2023-09-19T10:39:30;9.20;;;2.77;;
14088;SDS011;7120;52.890;6.040;2023-09-19T10:41:57;8.10;;;2.63;;
14088;SDS011;7120;52.890;6.040;2023-09-19T10:44:30;6.70;;;2.40;;
14088;SDS011;7120;52.890;6.040;2023-09-19T10:46:57;8.57;;;3.50;;
14088;SDS011;7120;52.890;6.040;2023-09-19T10:49:23;8.23;;;2.73;;
14088;SDS011;7120;52.890;6.040;2023-09-19T10:51:50;5.57;;;2.37;;
14088;SDS011;7120;52.890;6.040;2023-09-19T10:54:20;5.53;;;2.40;;
14088;SDS011;7120;52.890;6.040;2023-09-19T10:56:52;6.43;;;2.80;;
14088;SDS011;7120;52.890;6.040;2023-09-19T10:59:19;7.53;;;2.80;;
14088;SDS011;7120;52.890;6.040;2023-09-19T11:01:50;7.87;;;2.43;;
14088;SDS011;7120;52.890;6.040;2023-09-19T11:04:29;8.50;;;2.30;;
14088;SDS011;7120;52.890;6.040;2023-09-19T11:07:02;9.13;;;3.03;;
14088;SDS011;7120;52.890;6.040;2023-09-19T11:09:51;12.40;;;3.20;;
14088;SDS011;7120;52.890;6.040;2023-09-19T11:15:02;9.00;;;2.70;;
14088;SDS011;7120;52.890;6.040;2023-09-19T11:17:33;9.60;;;2.20;;
14088;SDS011;7120;52.890;6.040;2023-09-19T11:33:22;9.47;;;2.63;;
14088;SDS011;7120;52.890;6.040;2023-09-19T11:36:03;10.47;;;3.07;;
14088;SDS011;7120;52.890;6.040;2023-09-19T11:43:46;6.53;;;2.70;;
14088;SDS011;7120;52.890;6.040;2023-09-19T11:46:16;8.67;;;2.70;;
14088;SDS011;7120;52.890;6.040;2023-09-19T11:48:50;8.17;;;2.70;;
14088;SDS011;7120;52.890;6.040;2023-09-19T11:53:52;7.17;;;2.07;;
14088;SDS011;7120;52.890;6.040;2023-09-19T11:56:21;8.07;;;1.70;;
14088;SDS011;7120;52.890;6.040;2023-09-19T11:58:53;10.00;;;2.47;;
14088;SDS011;7120;52.890;6.040;2023-09-19T12:03:53;9.30;;;2.23;;
14088;SDS011;7120;52.890;6.040;2023-09-19T12:06:22;6.73;;;1.90;;
14088;SDS011;7120;52.890;6.040;2023-09-19T12:08:48;4.60;;;1.93;;
14088;SDS011;7120;52.890;6.040;2023-09-19T12:11:15;6.77;;;2.13;;
14088;SDS011;7120;52.890;6.040;2023-09-19T12:13:45;4.73;;;1.77;;
14088;SDS011;7120;52.890;6.040;2023-09-19T12:18:46;7.37;;;2.30;;
14088;SDS011;7120;52.890;6.040;2023-09-19T12:21:30;5.03;;;1.77;;
14088;SDS011;7120;52.890;6.040;2023-09-19T12:26:40;7.00;;;2.00;;
14088;SDS011;7120;52.890;6.040;2023-09-19T12:29:14;8.33;;;1.90;;
14088;SDS011;7120;52.890;6.040;2023-09-19T12:31:56;6.27;;;1.77;;
14088;SDS011;7120;52.890;6.040;2023-09-19T12:37:13;6.17;;;2.00;;
14088;SDS011;7120;52.890;6.040;2023-09-19T12:39:45;3.87;;;1.40;;
14088;SDS011;7120;52.890;6.040;2023-09-19T12:42:14;6.50;;;1.90;;
14088;SDS011;7120;52.890;6.040;2023-09-19T12:44:41;4.67;;;1.53;;
14088;SDS011;7120;52.890;6.040;2023-09-19T12:47:12;4.60;;;1.57;;
14088;SDS011;7120;52.890;6.040;2023-09-19T12:55:47;6.07;;;1.70;;
14088;SDS011;7120;52.890;6.040;2023-09-19T12:58:13;3.37;;;1.70;;
14088;SDS011;7120;52.890;6.040;2023-09-19T13:00:44;4.73;;;1.57;;
14088;SDS011;7120;52.890;6.040;2023-09-19T13:11:04;5.70;;;1.63;;
14088;SDS011;7120;52.890;6.040;2023-09-19T13:13:31;7.70;;;1.70;;
14088;SDS011;7120;52.890;6.040;2023-09-19T13:15:57;3.50;;;1.57;;
14088;SDS011;7120;52.890;6.040;2023-09-19T13:18:23;5.13;;;1.57;;
14088;SDS011;7120;52.890;6.040;2023-09-19T13:21:09;4.73;;;1.73;;
14088;SDS011;7120;52.890;6.040;2023-09-19T13:23:37;5.10;;;1.77;;
14088;SDS011;7120;52.890;6.040;2023-09-19T13:26:03;2.57;;;1.20;;
14088;SDS011;7120;52.890;6.040;2023-09-19T13:28:31;4.97;;;1.70;;
14088;SDS011;7120;52.890;6.040;2023-09-19T13:30:56;7.83;;;2.50;;
14088;SDS011;7120;52.890;6.040;2023-09-19T13:33:22;4.40;;;1.37;;
14088;SDS011;7120;52.890;6.040;2023-09-19T13:35:47;6.20;;;1.37;;
14088;SDS011;7120;52.890;6.040;2023-09-19T13:38:13;4.03;;;1.30;;
14088;SDS011;7120;52.890;6.040;2023-09-19T13:40:39;2.70;;;1.40;;
14088;SDS011;7120;52.890;6.040;2023-09-19T13:43:06;4.20;;;1.63;;
14088;SDS011;7120;52.890;6.040;2023-09-19T13:45:33;4.00;;;1.67;;
14088;SDS011;7120;52.890;6.040;2023-09-19T13:47:59;5.37;;;1.47;;
14088;SDS011;7120;52.890;6.040;2023-09-19T13:50:24;6.00;;;1.77;;
14088;SDS011;7120;52.890;6.040;2023-09-19T13:52:51;2.80;;;1.30;;
14088;SDS011;7120;52.890;6.040;2023-09-19T13:55:18;5.17;;;1.70;;
14088;SDS011;7120;52.890;6.040;2023-09-19T13:57:46;3.47;;;1.30;;
14088;SDS011;7120;52.890;6.040;2023-09-19T14:00:14;4.37;;;1.73;;
14088;SDS011;7120;52.890;6.040;2023-09-19T14:02:41;2.43;;;1.43;;
14088;SDS011;7120;52.890;6.040;2023-09-19T14:05:09;4.73;;;1.70;;
14088;SDS011;7120;52.890;6.040;2023-09-19T14:07:37;5.17;;;1.37;;
14088;SDS011;7120;52.890;6.040;2023-09-19T14:10:03;3.57;;;1.30;;
14088;SDS011;7120;52.890;6.040;2023-09-19T14:12:29;5.13;;;1.90;;
14088;SDS011;7120;52.890;6.040;2023-09-19T14:14:55;5.17;;;2.00;;
14088;SDS011;7120;52.890;6.040;2023-09-19T14:17:21;4.30;;;1.60;;
14088;SDS011;7120;52.890;6.040;2023-09-19T14:19:46;3.30;;;1.27;;
14088;SDS011;7120;52.890;6.040;2023-09-19T14:22:12;3.10;;;1.70;;
14088;SDS011;7120;52.890;6.040;2023-09-19T14:24:39;4.20;;;1.57;;
14088;SDS011;7120;52.890;6.040;2023-09-19T14:27:06;4.13;;;1.60;;
14088;SDS011;7120;52.890;6.040;2023-09-19T14:29:34;2.70;;;1.53;;
14088;SDS011;7120;52.890;6.040;2023-09-19T14:31:59;4.40;;;1.60;;
14088;SDS011;7120;52.890;6.040;2023-09-19T14:34:24;4.83;;;1.60;;
14088;SDS011;7120;52.890;6.040;2023-09-19T14:36:50;3.57;;;1.30;;
14088;SDS011;7120;52.890;6.040;2023-09-19T14:39:15;5.17;;;1.87;;
14088;SDS011;7120;52.890;6.040;2023-09-19T14:41:41;3.40;;;1.67;;
14088;SDS011;7120;52.890;6.040;2023-09-19T14:44:06;3.93;;;1.40;;
14088;SDS011;7120;52.890;6.040;2023-09-19T14:46:32;5.93;;;1.67;;
14088;SDS011;7120;52.890;6.040;2023-09-19T14:48:58;2.63;;;1.40;;
14088;SDS011;7120;52.890;6.040;2023-09-19T14:51:29;3.80;;;1.60;;
14088;SDS011;7120;52.890;6.040;2023-09-19T14:53:54;5.07;;;1.40;;
14088;SDS011;7120;52.890;6.040;2023-09-19T14:56:21;2.70;;;1.40;;
14088;SDS011;7120;52.890;6.040;2023-09-19T14:58:49;3.00;;;1.47;;
14088;SDS011;7120;52.890;6.040;2023-09-19T15:01:14;2.50;;;1.40;;
14088;SDS011;7120;52.890;6.040;2023-09-19T15:03:40;3.40;;;1.73;;
14088;SDS011;7120;52.890;6.040;2023-09-19T15:06:08;4.40;;;1.90;;
14088;SDS011;7120;52.890;6.040;2023-09-19T15:08:35;3.87;;;1.73;;
14088;SDS011;7120;52.890;6.040;2023-09-19T15:11:06;4.27;;;2.10;;
14088;SDS011;7120;52.890;6.040;2023-09-19T15:13:35;3.50;;;1.40;;
14088;SDS011;7120;52.890;6.040;2023-09-19T15:16:07;5.13;;;2.00;;
14088;SDS011;7120;52.890;6.040;2023-09-19T15:18:37;4.23;;;1.73;;
14088;SDS011;7120;52.890;6.040;2023-09-19T15:21:04;7.33;;;1.63;;
14088;SDS011;7120;52.890;6.040;2023-09-19T15:23:30;6.93;;;1.87;;
14088;SDS011;7120;52.890;6.040;2023-09-19T15:26:06;5.13;;;2.33;;
14088;SDS011;7120;52.890;6.040;2023-09-19T15:28:33;4.80;;;1.93;;
14088;SDS011;7120;52.890;6.040;2023-09-19T15:31:05;6.53;;;2.17;;
14088;SDS011;7120;52.890;6.040;2023-09-19T15:33:35;5.40;;;2.37;;
14088;SDS011;7120;52.890;6.040;2023-09-19T15:36:02;5.87;;;2.20;;
14088;SDS011;7120;52.890;6.040;2023-09-19T15:38:31;6.07;;;2.13;;
14088;SDS011;7120;52.890;6.040;2023-09-19T15:41:21;3.53;;;1.77;;
14088;SDS011;7120;52.890;6.040;2023-09-19T15:43:46;5.10;;;2.10;;
14088;SDS011;7120;52.890;6.040;2023-09-19T15:46:12;6.13;;;2.27;;
14088;SDS011;7120;52.890;6.040;2023-09-19T15:48:38;4.37;;;2.30;;
14088;SDS011;7120;52.890;6.040;2023-09-19T15:51:04;6.00;;;2.30;;
14088;SDS011;7120;52.890;6.040;2023-09-19T15:53:51;8.40;;;2.43;;
14088;SDS011;7120;52.890;6.040;2023-09-19T15:56:17;5.30;;;2.53;;
14088;SDS011;7120;52.890;6.040;2023-09-19T15:58:46;4.53;;;2.27;;
14088;SDS011;7120;52.890;6.040;2023-09-19T16:01:13;5.83;;;2.60;;
14088;SDS011;7120;52.890;6.040;2023-09-19T16:03:40;4.17;;;2.10;;
14088;SDS011;7120;52.890;6.040;2023-09-19T16:06:12;5.13;;;2.50;;
14088;SDS011;7120;52.890;6.040;2023-09-19T16:08:42;4.83;;;2.43;;
14088;SDS011;7120;52.890;6.040;2023-09-19T16:11:09;4.27;;;2.53;;
14088;SDS011;7120;52.890;6.040;2023-09-19T16:13:38;4.37;;;2.47;;
14088;SDS011;7120;52.890;6.040;2023-09-19T16:16:05;6.50;;;2.80;;
14088;SDS011;7120;52.890;6.040;2023-09-19T16:18:33;6.43;;;3.27;;
14088;SDS011;7120;52.890;6.040;2023-09-19T16:21:05;7.70;;;2.90;;
14088;SDS011;7120;52.890;6.040;2023-09-19T16:23:34;5.17;;;2.67;;